Regional Weather Synopsis
Issued by NWS Denver/Boulder, CO

Home | Current Version | Previous Version | Text Only | Print | Product List | Glossary On
Versions: 1 2 3 4 5 6 7 8 9 10 11 12 13 14 15 16 17 18 19 20 21 22 23 24 25 26 27 28 29 30 31 32 33 34 35 36 37 38 39 40 41 42 43 44 45 46 47 48 49 50
000
NZUS99 KBOU 241906
SYNBOU

Hot-Air Balloon Forecast for Colorado
National Weather Service Denver/Boulder, Colorado
1305 MDT Thursday, June 24, 2021


* * * * * Northeast Colorado * * * * *

METAR KFNL 241856Z VRB05KT 10SM CLR 29/09 A3003 RMK AO2 LTG DSNT W
       SLP091 T02890094
METAR KFNL 241756Z 32007KT 250V350 6SM HZ CLR 28/09 A3005 RMK AO2 LTG
       DSNT W SLP094 T02830089 10283 20189 58003
METAR KFNL 241656Z 36006KT 10SM CLR 27/11 A3005 RMK AO2 SLP103
       T02670111

METAR KGXY 241856Z 10003KT 6SM HZ CLR 30/08 A3002 RMK AO2 SLP105
       T03000083
METAR KGXY 241756Z 01005KT 10SM CLR 28/09 A3003 RMK AO2 SLP114 T02780089
       10278 20200 58004
METAR KGXY 241656Z 35006KT 10SM CLR 27/09 A3004 RMK AO2 SLP114
       T02670094

METAR KLMO 241855Z AUTO 06004KT 10SM CLR 31/05 A3004 RMK AO2 T03090053
METAR KLMO 241835Z AUTO 05007KT 10SM CLR 30/06 A3005 RMK AO2
       T03010056
METAR KLMO 241815Z AUTO 02005KT 10SM CLR 31/07 A3005 RMK AO2
       T03070065

METAR KBDU 241855Z AUTO 10005KT 10SM CLR 29/08 A3004 RMK AO2 LTG DSNT
       SW
METAR KBDU 241835Z AUTO 08005KT 10SM CLR 28/07 A3004 RMK AO2 LTG DSNT
       W
METAR KBDU 241815Z AUTO 02007KT 10SM SCT120 28/06 A3005 RMK AO2

METAR KEIK 241855Z AUTO 12006KT 10SM SCT110 30/05 A3003 RMK AO2 LTG DSNT
       S T02960054 PWINO
METAR KEIK 241835Z AUTO 11004KT 10SM SCT120 29/05 A3004 RMK AO2
       T02850054 PWINO
METAR KEIK 241815Z AUTO 00000KT 10SM SCT120 29/05 A3004 RMK AO2 LTG DSNT
       S AND W T02880050 PWINO

KBJC 241739Z 2418/2518 VRB05KT P6SM SCT120 BKN220
     FM242100 12010G18KT P6SM BKN080 BKN150
      TEMPO 2421/2501 VRB20G35KT -TSRA BKN060CB
     FM250100 VRB06KT P6SM VCSH SCT110 BKN220
     FM250500 29006KT P6SM SCT100 BKN220
     FM251200 01007KT P6SM VCSH SCT070 BKN140
     FM251700 08006KT P6SM VCTS SCT080CB BKN120
METAR KBJC 241745Z 35007KT 10SM BKN150 27/06 A3009
METAR KBJC 241645Z 02005KT 10SM BKN150 25/07 A3010

KDEN 241739Z 2418/2524 10005KT P6SM FEW070 SCT120 BKN220
     FM242100 12012G20KT P6SM BKN090 BKN150
      TEMPO 2421/2501 VRB20G35KT -TSRA BKN060CB
     FM250100 VRB06KT P6SM VCSH SCT110 BKN220
     FM250500 21006KT P6SM SCT100 BKN220
     FM251200 01007KT P6SM VCSH SCT070 BKN140
     FM251700 06006KT P6SM VCTS SCT080CB BKN120
METAR KDEN 241853Z VRB05KT 10SM FEW100 BKN200 28/11 A3006 RMK AO2 LTG
       DSNT SE SLP083 OCNL LTGICCG DSNT SE CB DSNT SE MOV NE
       T02780106
METAR KDEN 241753Z 13004KT 10SM FEW080 SCT120 BKN200 24/09 A3007 RMK AO2
       SLP094 60000 T02390094 10244 20183 53002
METAR KDEN 241653Z VRB06KT 10SM FEW070 SCT120 BKN200 24/11 A3007 RMK AO2
       SLP096 T02390111


KBKF 241950Z 2419/2523 VRB06KT 9999 FEW080 BKN100
      QNH2996INS
      BECMG 2420/2421 04010G20KT 9000 -SHRA VCTS BKN080CB
      QNH2996INS
      TEMPO 2421/2501 VRB20G35KT 4800 -TSRA BKN060CB
      BECMG 2500/2501 06012KT 9000 -SHRA BKN075 QNH2999INS
      BECMG 2505/2506 VRB06KT 9999 NSW SCT090 BKN100 QNH3000INS
      BECMG 2515/2516 30010G20KT 9000 -SHRA BKN065 510005
      QNH2993INS
      TEMPO 2518/2523 VRB20G35KT -TSRA BKN030CB TX28/2421Z
      TN15/2510Z
METAR KBKF 241858Z 34005KT 10SM FEW100 BKN180 27/08 A3007 RMK AO2A
        LTG DSNT SE SLP093 T02740083
METAR KBKF 241758Z 06005KT 10SM FEW080 BKN180 25/11 A3009 RMK AO2A
        SLP105 T02510109 10257 20166 50001
METAR KBKF 241658Z 03005KT 10SM FEW080 BKN180 25/10 A3009 RMK AO2A
        SLP108 T02480103

KAPA 241739Z 2418/2518 VRB05KT P6SM FEW070 SCT110 BKN220
     FM242100 12010G20KT P6SM BKN090 BKN150
      TEMPO 2421/2501 VRB20G35KT -TSRA BKN060CB
     FM250100 VRB06KT P6SM VCSH SCT110 BKN220
     FM250500 19006KT P6SM SCT100 BKN220
     FM251200 02007KT P6SM VCSH SCT070 BKN140
     FM251700 07006KT P6SM VCTS SCT080CB BKN120
METAR KAPA 241853Z VRB05KT 10SM FEW070 SCT120 BKN200 27/08 A3008 RMK AO2
       LTG DSNT SE SLP098 OCNL LTGICCG DSNT E AND SE T02670083
METAR KAPA 241753Z VRB05KT 10SM FEW070 BKN110 BKN200 26/08 A3010 RMK AO2
       SLP105 60000 T02560078 10261 20172 51000
METAR KAPA 241653Z 32005KT 10SM FEW070 BKN110 BKN200 24/09 A3010 RMK AO2
       SLP105 T02440094

METAR KMNH 241855Z AUTO 03004KT 10SM TS SCT024 SCT036 SCT070 20/11 A3019
       RMK AO2 LTG DSNT NE E AND W P0001
METAR KMNH 241835Z AUTO 29003KT 10SM -RA SCT035 BKN085 BKN095 20/08
       A3021 RMK AO2 LTG DSNT W P0001
METAR KMNH 241815Z AUTO 33005KT 10SM SCT075 BKN090 21/07 A3020 RMK AO2
       LTG DSNT W AND NW

METAR KFMM 241855Z AUTO 00000KT 10SM BKN100 23/12 A3004 RMK AO2 LTG DSNT
       SW T02270120
METAR KFMM 241835Z AUTO 19004KT 10SM SCT120 23/12 A3003 RMK AO2
       T02280124
METAR KFMM 241815Z AUTO 19007KT 10SM BKN120 22/15 A3003 RMK AO2
       T02210149

METAR KSTK 241855Z AUTO 00000KT 10SM SCT041 SCT070 OVC110 21/16 A2998
       RMK AO2 LTG DSNT W
METAR KSTK 241835Z AUTO 13003KT 10SM -RA SCT022 BKN080 OVC110 20/16
       A3000 RMK AO2
METAR KSTK 241815Z AUTO 00000KT 7SM -RA SCT029 BKN080 OVC110 21/15 A3001
       RMK AO2

METAR KAKO 241853Z AUTO 05007KT 10SM FEW120 27/10 A3002 RMK AO2 SLP103
       T02670100
METAR KAKO 241753Z AUTO 08011KT 10SM CLR 24/10 A3004 RMK AO2 SLP112
       T02390100 10256 20217 50001
METAR KAKO 241653Z AUTO 12007KT 10SM FEW090 FEW120 24/11 A3004 RMK AO2
       SLP113 T02390111

METAR KLIC 241855Z AUTO 10011G16KT 10SM SCT110 31/06 A3005 RMK AO2 LTG
       DSNT NW SLP081 T03060056
METAR KLIC 241755Z AUTO 09013G17KT 10SM BKN110 29/06 A3007 RMK AO2
       SLP090 T02940061 10300 20206 56006
METAR KLIC 241655Z AUTO 04006G15KT 10SM CLR 29/08 A3007 RMK AO2 SLP087
       T02890078

METAR KHEQ 241855Z AUTO 08009KT 10SM CLR 25/16 A3000 RMK AO2
METAR KHEQ 241835Z AUTO 08009KT 10SM CLR 25/17 A3001 RMK AO2
METAR KHEQ 241815Z AUTO 03004KT 10SM CLR 26/17 A2999 RMK AO2

METAR K2V6 241854Z AUTO 07011KT 10SM CLR 26/M01 A2999 RMK AO2
METAR K2V6 241834Z AUTO 05012KT 10SM CLR 26/M02 A3000 RMK AO2
METAR K2V6 241814Z AUTO 04009KT 10SM CLR 25/M02 A3000 RMK AO2

METAR K2V5 241855Z AUTO 05016G23KT 10SM CLR 27/16 A2997 RMK AO2
METAR K2V5 241835Z AUTO 04014G19KT 10SM CLR 27/15 A2998 RMK AO2
METAR K2V5 241815Z AUTO 05010G19KT 10SM CLR 26/17 A2998 RMK AO2


Sunrise/Sunset for 06/24/2021
Fort Collins - 05:30:45 MDT / 20:34:55 MDT
Denver       - 05:33:03 MDT / 20:31:46 MDT
Sterling     - 05:23:01 MDT / 20:27:49 MDT

Denver/Boulder (KFTG) 06/24/21 19:00 UTC
Radar VAD winds      Height      Dir/Spd(kt)
                  35000 FT MSL...230/052
                  30000 FT MSL...219/033
                  28000 FT MSL...231/027
                  26000 FT MSL...210/027
                  25000 FT MSL...232/024
                  24000 FT MSL...230/029
                  22000 FT MSL...235/029
                  20000 FT MSL...232/026
                  19400 FT MSL...228/026
                  19000 FT MSL...228/026
                  18000 FT MSL...224/024
                  17000 FT MSL...219/021
                  16700 FT MSL...221/022
                  16000 FT MSL...232/026
                  15000 FT MSL...223/024
                  14500 FT MSL...228/025
                  14000 FT MSL...235/028
                  13000 FT MSL...201/016
                  12600 FT MSL...241/024
                  12000 FT MSL...178/015
                  11200 FT MSL...174/012
                  11000 FT MSL...149/019
                  10000 FT MSL...148/009
                  10000 FT MSL...163/016
                   9000 FT MSL...141/007
                   9000 FT MSL...139/009
                   8100 FT MSL...126/006
                   8000 FT MSL...130/006
                   7400 FT MSL...127/006
                   7000 FT MSL...133/008
                   6600 FT MSL...126/007
                   6200 FT MSL...073/010
                   6000 FT MSL...089/008
                   5900 FT MSL...081/008

Denver/Boulder Aviation Discussion
Issued at 1749 UTC Thursday, June 24, 2021

.AVIATION...(For the 18Z TAFS through 18Z Friday afternoon)
Issued at 1140 AM MDT Thu Jun 24 2021
Models show east-southeasterlies this afternoon for DIA. Scattered
convection is a good bet from 21Z through most of the evening.
There could some -TSRA with ceilings in the BKN050-060 range as
well as a VRB20G35KT outflow winds.


* * * * * Southeast Colorado * * * * *

METAR K4BM 241855Z AUTO 31005KT 10SM TS SCT034 OVC043 11/03 A3051 RMK
       AO2 LTG DSNT SW THRU N
METAR K4BM 241835Z AUTO 28004KT 10SM VCTS OVC036 11/02 A3052 RMK AO2 LTG
       DSNT ALQS
METAR K4BM 241815Z AUTO 00000KT 10SM VCTS BKN036 BKN048 OVC050 12/02
       A3051 RMK AO2 LTG DSNT SW AND NW

SPECI KAFF 241827Z 01005KT 10SM FEW060 BKN090 BKN150 23/11 A3012 RMK
       AO2A TS DSIPTD SLP102
SPECI KAFF 241812Z 24007G18KT 210V280 7SM -TSRA SCT060CB OVC080 23/09
       A3013 RMK AO2A TS 2E MOV NE SLP105
SPECI KAFF 241804Z 16008KT 10SM -SHRA BKN080 24/06 A3012 RMK AO2A
       SLP102

KCOS 241758Z 2418/2518 15014G24KT P6SM VCSH SCT090 SCT200
     FM242000 12013KT P6SM VCTS SCT080CB BKN120 BKN200
      TEMPO 2422/2424 VRB28G38KT 6SM TSRA BKN070CB
     FM250000 34014KT P6SM VCSH BKN080
     FM250400 36008KT P6SM SCT120 BKN200
     FM251600 16010KT P6SM SCT100 SCT200
METAR KCOS 241854Z 16014G27KT 10SM SCT100 BKN230 28/05 A3008 RMK AO2
        PK WND 17029/1811 LTG DSNT N AND NE SLP079 CB DSNT NW-NE MOV
        NE T02780050
METAR KCOS 241754Z 15020G27KT 10SM SCT090 SCT230 29/05 A3010 RMK AO2
        PK WND 16027/1718 SLP082 60000 T02940050 10294 20222 56004
METAR KCOS 241654Z 15013G22KT 10SM SCT090 SCT230 28/06 A3011 RMK AO2
        SLP086 T02830056

METAR KABH 241856Z AUTO 16010KT 10SM SCT085 28/07 A3011 RMK AO2 LTG
        DSNT NW-N SLP107 T02840065
SPECI KABH 241803Z AUTO 19013G19KT 10SM SCT080 BKN100 27/07 A3012 RMK
       AO2 WSHFT 1754 SLP110
SPECI KABH 241752Z AUTO 15014G22KT 10SM FEW080 BKN100 27/07 A3011 RMK
       AO2 WSHFT 51 SLP107

METAR KFLY 241855Z AUTO 18015G19KT 10SM SCT080 28/03 A3016 RMK AO2 LTG
       DSNT N AND W T02820029
METAR KFLY 241835Z AUTO 20015G18KT 10SM SCT080 26/03 A3017 RMK AO2 LTG
       DSNT W T02580026
METAR KFLY 241815Z AUTO 17013G22KT 10SM SCT080 SCT090 28/03 A3017 RMK
       AO2 T02750033

KFCS 241308Z 2413/2519 27015G20KT 9999 VCSH OVC140 QNH3005INS
      BECMG 2417/2418 33020G30KT 8000 -TSRA OVC100CB QNH2999INS
      TEMPO 2420/2502 32035G45KT 4800 TSRAGR OVC060CB
      BECMG 2503/2504 VRB06KT 9999 NSW BKN120 QNH3004INS
      TX29/2422Z
      TN20/2415Z
METAR KFCS 241756Z AUTO 17014G22KT 10SM CLR 30/04 A3005 RMK AO2 SLP103
        T02980037 10298 20228 56004 $
SPECI KFCS 241745Z AUTO 15016G22KT 10SM CLR 29/05 A3005 RMK AO2 WSHFT 40
       SLP103 $
SPECI KFCS 241736Z AUTO 19012G20KT 10SM CLR 29/05 A3005 RMK AO2 WSHFT
        22 SLP103 $

KPUB 241803Z 2418/2518 13008KT P6SM SCT120 SCT200
     FM242000 10012G22KT P6SM SCT120 BKN200
     FM242300 03020G30KT P6SM VCTS SCT080CB BKN120 BKN200
     FM250300 01014KT P6SM SCT120 BKN200
     FM250600 34007KT P6SM SCT120 SCT200
     FM251600 16008KT P6SM SCT100 SCT200
METAR KPUB 241853Z 15007KT 10SM CLR 33/08 A2998 RMK AO2 SLP069
       T03280083
METAR KPUB 241753Z 12007KT 10SM R08R/6000VP6000FT CLR 31/08 A3000 RMK
       AO2 SLP082 60000 T03110083 10322 20256 58006
METAR KPUB 241653Z 12009KT 10SM CLR 31/09 A3002 RMK AO2 SLP086
       T03060094

METAR KVTP 241855Z AUTO 00000KT 10SM CLR 18/03 A3043 RMK AO2
METAR KVTP 241835Z AUTO 26007KT 10SM CLR 17/02 A3043 RMK AO2
METAR KVTP 241815Z AUTO 25010G17KT 210V270 10SM CLR 16/03 A3043 RMK
       AO2

METAR KTAD 241854Z AUTO 10SM CLR 31/07 A3006 RMK AO2 SLP078 T03110067
METAR KTAD 241754Z AUTO 14009KT 10SM CLR 30/07 A3009 RMK AO2 SLP091
        T03000067 10300 20194 58009
METAR KTAD 241654Z AUTO 11004KT 10SM CLR 29/07 A3011 RMK AO2 SLP096
        T02890067

METAR KLHX 241853Z AUTO 10SM CLR 35/07 A2997 RMK AO2 SLP068
       T03500067
METAR KLHX 241753Z AUTO 35011G18KT 330V040 10SM CLR 34/07 A2999 RMK AO2
       SLP079 T03390067 10344 20239 58008
METAR KLHX 241653Z AUTO 02010KT 10SM CLR 32/08 A3000 RMK AO2 SLP082
       T03220083

METAR KLAA 241853Z AUTO 02015G25KT 10SM CLR 34/10 A2991 RMK AO2 PK WND
       03026/1822 SLP069 T03440100
METAR KLAA 241753Z AUTO 01015G26KT 10SM CLR 33/10 A2992 RMK AO2 PK WND
       03027/1714 SLP070 T03330100 10339 20250 56013
METAR KLAA 241653Z AUTO 36019G26KT 10SM CLR 32/11 A2993 RMK AO2 PK WND
       01026/1649 SLP074 T03220106

METAR KSPD 241856Z AUTO 35006G17KT 35/06 A2997 RMK AO1 SLP063
       T03500056
METAR KSPD 241756Z AUTO 32010G20KT 34/05 A2997 RMK AO1 PK WND 35026/1716
       SLP064 T03440050 10350 20267 58002
METAR KSPD 241656Z AUTO 36018G26KT 33/04 A2997 RMK AO1 PK WND 34033/1559
       SLP065 T03280044

Sunrise/Sunset for 06/24/2021
Burlington - 05:23:39 MDT / 20:19:39 MDT
Pueblo     - 05:36:19 MDT / 20:25:46 MDT
Lamar      - 05:28:51 MDT / 20:17:12 MDT

Pueblo (KPUX) 06/24/21 19:01 UTC
Radar VAD winds      Height      Dir/Spd(kt)
                  31000 FT MSL...235/043
                  13000 FT MSL...179/016
                  12500 FT MSL...168/019
                  12000 FT MSL...161/016
                  11000 FT MSL...158/017
                  10900 FT MSL...158/017
                  10000 FT MSL...153/016
                   9700 FT MSL...151/016
                   9000 FT MSL...145/016
                   8700 FT MSL...145/016
                   8000 FT MSL...148/015
                   7900 FT MSL...146/014
                   7100 FT MSL...142/014
                   7000 FT MSL...141/016
                   6400 FT MSL...139/014
                   6000 FT MSL...145/015
                   5900 FT MSL...149/016
                   5700 FT MSL...151/015

Pueblo Aviation Discussion
Issued at 1753 UTC Thursday, June 24, 2021

.AVIATION...(For the 18Z TAFS through 18Z Friday afternoon)
Issued at 1152 AM MDT Thu Jun 24 2021
Isolated to scattered thunderstorms can be expected at COS and
PUB through the late afternoon and early evening hours, with the
best chances of storms at the terminals being at COS between 20Z-
24Z. East to southeast winds of 10-15 kts can be expected at COS
and PUB through the afternoon, with gusty variable winds of 30-40kts
possible associated with thunderstorm outflows. Winds will become
more north to northwest through the early evening, as a front moves
across the eastern plains through the evening hours, with VFR
conditions persisting through the taf period.
VFR conditions expected at ALS through the taf period, with
breezy west to southwest winds 15-20kts expected through the
afternoon and evening hours. Will see isolated to scattered
showers and storms move across the valley through the afternoon,
however, will keep VCTS in the taf at this time.


* * * * * Northwest Colorado * * * * *

METAR KCAG 241853Z AUTO 28006KT 10SM CLR 27/06 A3010 RMK AO2 LTG DSNT
       SE-SW SLP114 T02670056
METAR KCAG 241753Z AUTO 27007KT 240V300 10SM CLR 26/06 A3014 RMK AO2
       SLP126 T02610061 10272 20100 58012
METAR KCAG 241653Z AUTO VRB05KT 10SM SCT120 25/07 A3016 RMK AO2 SLP133
       T02500072

METAR KHDN 241856Z AUTO 15006KT 9SM SCT075 24/06 A3014 RMK AO2 LTG DSNT
       S AND SW SLP120 T02440061
METAR KHDN 241756Z AUTO VRB05KT 10SM CLR 24/06 A3018 RMK AO2 SLP130
       T02390061 10239 20111 58009
METAR KHDN 241656Z AUTO 32010KT 10SM SCT120 23/07 A3020 RMK AO2 SLP134
       T02330067

METAR KSBS 241855Z AUTO 17006KT 10SM CLR 23/06 A3015 RMK AO1
       T02320061
METAR KSBS 241835Z AUTO 18003KT 10SM CLR 22/06 A3017 RMK AO1
       T02200060
METAR KSBS 241815Z AUTO 19004KT 10SM CLR 22/06 A3018 RMK AO1
       T02240058

METAR KC07 241855Z AUTO 34004KT 10SM SCT070 BKN120 15/05 A3045 RMK AO2
       LTG DSNT SE THRU W
METAR KC07 241835Z AUTO 24005KT 10SM BKN120 15/05 A3046 RMK AO2 LTG DSNT
       SW AND W
METAR KC07 241815Z AUTO 33005KT 10SM SCT110 13/04 A3047 RMK AO2 LTG DSNT
       SW AND W

METAR K33V 241855Z AUTO 14009G14KT 10SM CLR 22/02 A3025 RMK AO2 T02190021
METAR K33V 241835Z AUTO 15012KT 10SM CLR 22/03 A3026 RMK AO2
       T02150033
METAR K33V 241815Z AUTO 15010KT 10SM CLR 21/03 A3027 RMK AO2
       T02100033

METAR KEEO 241853Z AUTO 33010KT 10SM -TSRA FEW024 BKN065 OVC080 21/12
       A3015 RMK AO2 LTG DSNT ALQDS RAB18 TSB03E18B42 SLP124 P0012
       T02110117
SPECI KEEO 241848Z AUTO 33010KT 9SM -TSRA FEW026 SCT055 OVC075 20/12
       A3015 RMK AO2 LTG DSNT ALQDS RAB18 TSB03E18B42 P0012
SPECI KEEO 241824Z AUTO 29015G23KT 3SM VCTS +RA BKN070 BKN085 20/10
       A3016 RMK AO2 LTG DSNT SE AND NW RAB18 TSB03E18 P0005
       T02000100

METAR K20V 241855Z AUTO 23003KT 10SM CLR 21/06 A3022 RMK AO2 LTG DSNT SE
       THRU W
METAR K20V 241835Z AUTO 20003KT 10SM CLR 21/06 A3024 RMK AO2 LTG DSNT SW
       AND W
METAR K20V 241815Z AUTO 20003KT 10SM TS SCT120 21/06 A3025 RMK AO2 LTG
       DSNT SE

METAR KGNB 241855Z AUTO 19005KT 10SM CLR 21/06 A3028 RMK AO2 LTG DSNT S
       T02080056
METAR KGNB 241835Z AUTO 00000KT 10SM SCT100 20/05 A3029 RMK AO2
       T01960053
METAR KGNB 241815Z AUTO 00000KT 10SM VCTS SCT100 SCT120 19/06 A3030 RMK
       AO2 T01940058

METAR K0CO 241855Z AUTO 06008KT 321V101 10SM BKN041 BKN047 OVC055 07/M01
       A3058 RMK AO2
METAR K0CO 241835Z AUTO 04007KT 301V081 10SM BKN042 OVC047 07/00 A3058
       RMK AO2
METAR K0CO 241815Z AUTO 36007KT 311V131 10SM SCT044 SCT050 OVC085 07/00
       A3058 RMK AO2

METAR KC99 241855Z AUTO 00000KT 10SM VCTS SCT055 BKN070 OVC090 13/00
       A3047 RMK AO2 LTG DSNT S AND W
METAR KC99 241835Z AUTO 31008KT 10SM SCT090 13/00 A3047 RMK AO2 LTG DSNT
       SW AND W
METAR KC99 241815Z AUTO 32006KT 10SM VCTS SCT037 SCT070 SCT080 15/02
       A3047 RMK AO2 LTG DSNT S AND W

KGJT 241744Z 2418/2518 25008KT P6SM VCTS SCT080CB BKN100
     FM242100 23010G20KT P6SM VCTS SCT080CB BKN100
     FM250300 11012KT P6SM SCT050 BKN100
     FM251200 10006KT P6SM FEW080 SCT100
METAR KGJT 241853Z 30011KT 10SM FEW050 BKN070 BKN090 24/09 A3009 RMK AO2
       LTG DSNT E AND SE RAB40E53 SLP125 P0000 T02440089
METAR KGJT 241753Z 27012KT 10SM SCT110 26/10 A3010 RMK AO2 LTG DSNT S
       SLP125 T02560100 10261 20178 56004
METAR KGJT 241653Z 00000KT 10SM CLR 25/10 A3010 RMK AO2 LTG DSNT E
       SLP125 T02500100

KRIL 241744Z 2418/2518 28008KT P6SM VCTS SCT070CB BKN100
     FM242000 23010G18KT 6SM -SHRA VCTS SCT060CB BKN080
     FM250000 24012G20KT P6SM VCTS SCT070CB BKN100
     FM250600 VRB03KT P6SM FEW060 SCT100
METAR KRIL 241853Z AUTO 17006KT 10SM FEW065 BKN095 BKN120 23/07 A3010
       RMK AO2 LTG DSNT N AND SW SLP124 T02330072
SPECI KRIL 241849Z AUTO 16007KT 10SM FEW065 BKN100 BKN120 23/07 A3011
       RMK AO2 LTG DSNT N AND SW
SPECI KRIL 241834Z AUTO 18005KT 10SM VCTS FEW065 SCT095 24/08 A3011 RMK
       AO2 LTG DSNT ALQDS T02390083

METAR K5SM 241855Z AUTO 22010G16KT 10SM -VCTSRA OVC060 10/06 A3049
        RMK AO2 LTG DSNT ALQS
METAR K5SM 241835Z AUTO 26004KT 10SM VCTS BKN070 BKN090 OVC110 10/04
       A3050 RMK AO2 LTG DSNT ALQS
METAR K5SM 241815Z AUTO 27006KT 240V330 10SM TS SCT060 BKN070 BKN100
       11/04 A3050 RMK AO2 LTG DSNT ALQS

KEGE 241744Z 2418/2518 VRB04KT P6SM VCTS SCT070CB BKN100
     FM242000 22012G18KT P6SM VCTS SCT045CB BKN100
     FM250200 32012G22KT P6SM VCTS SCT040CB BKN090
     FM250600 VRB04KT P6SM FEW060 SCT100
METAR KEGE 241856Z 00000KT 9SM VCTS CLR 24/06 A3016 RMK AO2 LTG DSNT SE
       AND S AND NW TSB48 SLP143 T02390056 PNO $
METAR KEGE 241756Z 36004KT 10SM CLR 23/07 A3020 RMK AO2 LTG DSNT SW AND
       NW SLP157 6//// T02330072 10233 20144 58014 PNO $
METAR KEGE 241656Z 06004KT 10SM CLR 21/07 A3022 RMK AO2 SLP167 T02060067
       PNO $

KASE 241744Z 2418/2518 29007KT P6SM VCSH SCT060 BKN100
     FM242000 14008G18KT 6SM -SHRA VCTS SCT050CB BKN070
     FM250000 18010KT P6SM VCTS SCT035CB BKN080
     FM251000 VRB04KT P6SM FEW070 SCT100
METAR KASE 241853Z 34007KT 10SM VCTS FEW110 22/06 A3022 RMK AO2 LTG DSNT
       N AND NW SLP109 T02220056
METAR KASE 241753Z VRB04KT 10SM FEW060 21/05 A3025 RMK AO2 LTG DSNT W
       SLP122 T02110050 10222 20106 58008
METAR KASE 241653Z 36004KT 10SM SCT060 21/06 A3026 RMK AO2 SLP121
       T02110061

METAR KCCU 241855Z AUTO 32006KT BKN030 BKN042 OVC100 13/03 A3054 RMK AO2
       PWINO
METAR KCCU 241835Z AUTO 33003KT SCT030 SCT035 BKN090 13/03 A3055 RMK AO2
       PWINO
METAR KCCU 241815Z AUTO 29004KT SCT030 OVC090 15/05 A3056 RMK AO2
       PWINO

METAR KLXV 241853Z AUTO 35009G16KT 10SM VCTS CLR 17/04 A3037 RMK AO2 LTG
       DSNT W RAE12 SLP116 P0001 T01720039
METAR KLXV 241753Z AUTO 01003KT 7SM -RA SCT060 OVC090 12/06 A3040 RMK
       AO2 RAB41 SLP137 P0000 60000 T01220061 10172 20061 53001
METAR KLXV 241653Z AUTO 25003KT 10SM BKN046 BKN055 14/04 A3040 RMK AO2
       SLP124 T01390039

Sunrise/Sunset for 06/24/2021
Rangely           - 05:47:09 MDT / 20:48:12 MDT
Grand Junction    - 05:49:28 MDT / 20:44:05 MDT
Steamboat Springs - 05:38:01 MDT / 20:41:40 MDT

Grand Junction (KGJX) 06/24/21 18:56 UTC
Radar VAD winds      Height      Dir/Spd(kt)
                  35000 FT MSL...229/027
                  34100 FT MSL...229/023
                  30700 FT MSL...218/019
                  30000 FT MSL...217/020
                  28000 FT MSL...219/019
                  27400 FT MSL...219/018
                  26000 FT MSL...228/017
                  25000 FT MSL...210/016
                  24000 FT MSL...225/018
                  23900 FT MSL...225/018
                  22000 FT MSL...207/017
                  21200 FT MSL...204/016
                  20000 FT MSL...203/016
                  19000 FT MSL...194/016
                  19000 FT MSL...194/016
                  18000 FT MSL...191/014
                  17100 FT MSL...190/014
                  17000 FT MSL...190/016
                  16000 FT MSL...186/014
                  15600 FT MSL...184/014
                  15000 FT MSL...183/016
                  14400 FT MSL...182/012
                  14000 FT MSL...168/010
                  13300 FT MSL...172/010
                  13000 FT MSL...169/008
                  12600 FT MSL...166/008
                  12000 FT MSL...177/006
                  11800 FT MSL...177/005
                  11100 FT MSL...209/003
                  11000 FT MSL...238/003
                  10700 FT MSL...283/004
                  10400 FT MSL...298/004
                  10300 FT MSL...298/005

Grand Junction Aviation Discussion
Issued at 1813 UTC Thursday, June 24, 2021

.AVIATION...(For the 18Z TAFS through 18Z Friday afternoon)
Issued at 1201 PM MDT Thu Jun 24 2021
Scattered showers and thunderstorms are already occurring over
high terrain with some isolated activity expected to drift into
lower elevations. Expect gusty outflow winds 20 to 30 kts with any
showers/storms and brief heavy rain with the stronger cells. ASE,
TEX, HDN, EGE and GUC stand the best chance to see a storm
impacting the terminals but overall, VFR conditions should
prevail. Some storm activity may linger after sunset but die down
by midnight at the latest.


* * * * * Southwest Colorado * * * * *

METAR KAJZ 241855Z AUTO 30009G14KT 10SM CLR 29/08 A3009 RMK AO2 LTG DSNT
       SW THRU N T02870078
METAR KAJZ 241835Z AUTO 29005KT 10SM CLR 29/08 A3009 RMK AO2 LTG DSNT W
       THRU N T02850077
METAR KAJZ 241815Z AUTO 00000KT 10SM CLR 28/08 A3011 RMK AO2 LTG DSNT W
       THRU NE T02780083

KMTJ 241744Z 2418/2518 28008KT P6SM FEW080 SCT100
     FM242000 23012G18KT P6SM VCTS SCT070CB BKN100
     FM250200 14012KT P6SM SCT060 BKN100
     FM251200 VRB04KT P6SM FEW080 SCT100
METAR KMTJ 241853Z AUTO VRB04KT 10SM CLR 26/09 A3013 RMK AO2 LTG DSNT NW
       SLP122 T02610089
METAR KMTJ 241753Z AUTO 03004KT 10SM CLR 24/10 A3016 RMK AO2 LTG DSNT NW
       SLP138 T02440100 10244 20133 58014
METAR KMTJ 241653Z AUTO VRB06KT 10SM CLR 23/11 A3018 RMK AO2 SLP147
       T02280111

METAR KGUC 241856Z AUTO 22005KT 10SM CLR 23/06 A3022 RMK AO2 TSB05E36
       SLP143 T02280056
SPECI KGUC 241847Z AUTO 23003KT 10SM CLR 23/06 A3023 RMK AO2
       TSB05E36
SPECI KGUC 241816Z AUTO 27004KT 10SM VCTS CLR 22/06 A3025 RMK AO2 LTG
       DSNT NW TSB05

METAR K7BM 241855Z AUTO 00000KT 10SM VCTS CLR 21/01 A3037 RMK AO2 LTG
       DSNT NW THRU NE
METAR K7BM 241835Z AUTO 10003KT 10SM SCT110 20/02 A3037 RMK AO2 LTG DSNT
       ALQS
METAR K7BM 241815Z AUTO 00000KT 10SM TS SCT048 SCT075 SCT110 20/03 A3038
       RMK AO2 LTG DSNT NE

METAR KAEJ 241855Z AUTO 15007KT 10SM VCTS CLR 23/M02 A3022 RMK AO2 LTG
       DSNT NE T02311022
METAR KAEJ 241835Z AUTO 32003KT 10SM SCT070 SCT120 23/M01 A3023 RMK AO2
       T02321014
METAR KAEJ 241815Z AUTO 22005KT 10SM SCT070 SCT120 23/M01 A3024 RMK AO2
       T02301007

METAR KANK 241855Z AUTO 34007KT 10SM BKN090 OVC110 22/06 A3028 RMK AO1
       T02200057
METAR KANK 241835Z AUTO 35005KT 10SM BKN090 OVC110 23/04 A3029 RMK AO1
       T02290041
METAR KANK 241815Z AUTO 36007KT 10SM OVC090 24/03 A3029 RMK AO1
       T02380028

METAR KMYP 241735Z AUTO 21015KT 10SM SCT016 SCT021 12/05 A3064 RMK
       AO2
METAR KMYP 241717Z AUTO 21012G19KT 10SM SCT012 BKN020 11/05 A3065 RMK
       AO2
METAR KMYP 241647Z AUTO 26011G14KT 10SM SCT012 09/05 A3064 RMK AO2

METAR KAIB 241855Z AUTO 00000KT 10SM CLR 24/08 A3017 RMK AO2 LTG DSNT W
       AND NW T02400084
METAR KAIB 241835Z AUTO 31006KT 10SM CLR 25/09 A3018 RMK AO2 LTG DSNT SW
       THRU N T02460090
METAR KAIB 241815Z AUTO 34004KT 10SM CLR 24/09 A3020 RMK AO2 LTG DSNT N
       AND NW T02350087

KTEX 241744Z 2418/2518 27008KT P6SM VCSH SCT045 BKN080
     FM241900 26010G18KT 6SM -SHRA VCTS SCT035CB BKN080
     FM250200 16010KT P6SM SCT045 BKN100
     FM250800 VRB04KT P6SM FEW045 SCT100
METAR KTEX 241855Z AUTO 31003KT 10SM SCT027 SCT033 BKN070 18/08 A3036
        RMK AO2 LTG DSNT W AND NW
METAR KTEX 241835Z AUTO 28007KT 10SM -VCTSRA SCT080 OVC090 18/06 A3037
       RMK AO2 LTG DSNT SE AND NW
METAR KTEX 241815Z AUTO 00000KT 10SM SCT070 BKN095 OVC110 17/05 A3038
       RMK AO2 LTG DSNT N AND NW

METAR K04V 241855Z AUTO 26011G19KT 10SM SCT023 SCT039 BKN095 22/03 A3026
       RMK AO2 LTG DSNT SW THRU N
METAR K04V 241835Z AUTO 19008G14KT 10SM SCT041 SCT070 SCT095 23/07 A3026
       RMK AO2 LTG DSNT W
METAR K04V 241815Z AUTO 22011KT 10SM SCT043 BKN080 OVC110 22/07 A3027
       RMK AO2

METAR KCEZ 241853Z AUTO 29012KT 10SM FEW120 27/09 A3016 RMK AO2 SLP137
       T02670094
METAR KCEZ 241753Z AUTO 28007KT 10SM SCT060 26/09 A3018 RMK AO2 SLP145
       T02610094 10267 20083 56010
METAR KCEZ 241653Z AUTO VRB05KT 10SM CLR 24/09 A3018 RMK AO2 SLP148
       T02440089

KDRO 241744Z 2418/2518 VRB04KT P6SM FEW060 SCT100
     FM242000 28014G22KT P6SM FEW080 SCT120
     FM250400 28008KT P6SM FEW090 SCT150
METAR KDRO 241853Z AUTO 10SM CLR 26/07 A3019 RMK AO2 SLP133 T02560067
       TSNO
METAR KDRO 241753Z AUTO 18005KT 10SM CLR 23/08 A3022 RMK AO2 SLP144
       T02330078 10239 20100 56012 TSNO
METAR KDRO 241653Z AUTO VRB03KT 10SM FEW001 22/08 A3023 RMK AO2 SLP150
       T02170083 TSNO

METAR KPSO 241855Z AUTO 19007KT 10SM CLR 23/06 A3027 RMK AO2 LTG DSNT NW
       T02320058
METAR KPSO 241835Z AUTO 25003G08KT 10SM CLR 23/06 A3028 RMK AO2 LTG DSNT
       NW T02270057
METAR KPSO 241815Z AUTO 16005KT 10SM CLR 22/06 A3028 RMK AO2 LTG DSNT N
       T02220056

METAR KCPW 241855Z AUTO 21008G16KT 10SM SCT028 12/03 A3060 RMK AO2
        LTG DSNT W THRU NE
METAR KCPW 241835Z AUTO 22011G16KT 10SM SCT025 12/05 A3060 RMK AO2 LTG
       DSNT W THRU N
METAR KCPW 241815Z AUTO 22008G16KT 190V260 10SM SCT022 12/05 A3060 RMK
       AO2 LTG DSNT W THRU N

KALS 241742Z 2418/2518 20006KT P6SM SCT100 SCT200
     FM242000 23015G25KT P6SM VCTS SCT080CB BKN200
     FM250000 28012G22KT P6SM VCSH BKN110 BKN200
     FM250300 03008KT P6SM SCT120 BKN200
     FM250800 VRB06KT P6SM SCT120 SCT200
METAR KALS 241852Z AUTO VRB05KT 10SM CLR 24/07 A3022 RMK AO2 SLP120
       T02440067
METAR KALS 241752Z AUTO 10SM CLR 24/07 A3025 RMK AO2 SLP125 T02390067
       10239 20106 58008
METAR KALS 241652Z AUTO VRB03KT 10SM CLR 21/06 A3026 RMK AO2 SLP139
        T02110061

Sunrise/Sunset for 06/24/2021
Vail    - 05:38:55 MDT / 20:37:04 MDT
Durango - 05:52:16 MDT / 20:35:49 MDT
Alamosa - 05:43:44 MDT / 20:28:22 MDT

Grand Junction (KGJX) 06/24/21 18:56 UTC
Radar VAD winds      Height      Dir/Spd(kt)
                  35000 FT MSL...229/027
                  34100 FT MSL...229/023
                  30700 FT MSL...218/019
                  30000 FT MSL...217/020
                  28000 FT MSL...219/019
                  27400 FT MSL...219/018
                  26000 FT MSL...228/017
                  25000 FT MSL...210/016
                  24000 FT MSL...225/018
                  23900 FT MSL...225/018
                  22000 FT MSL...207/017
                  21200 FT MSL...204/016
                  20000 FT MSL...203/016
                  19000 FT MSL...194/016
                  19000 FT MSL...194/016
                  18000 FT MSL...191/014
                  17100 FT MSL...190/014
                  17000 FT MSL...190/016
                  16000 FT MSL...186/014
                  15600 FT MSL...184/014
                  15000 FT MSL...183/016
                  14400 FT MSL...182/012
                  14000 FT MSL...168/010
                  13300 FT MSL...172/010
                  13000 FT MSL...169/008
                  12600 FT MSL...166/008
                  12000 FT MSL...177/006
                  11800 FT MSL...177/005
                  11100 FT MSL...209/003
                  11000 FT MSL...238/003
                  10700 FT MSL...283/004
                  10400 FT MSL...298/004
                  10300 FT MSL...298/005

Grand Junction Aviation Discussion
Issued at 1813 UTC Thursday, June 24, 2021

.AVIATION...(For the 18Z TAFS through 18Z Friday afternoon)
Issued at 1201 PM MDT Thu Jun 24 2021
Scattered showers and thunderstorms are already occurring over
high terrain with some isolated activity expected to drift into
lower elevations. Expect gusty outflow winds 20 to 30 kts with any
showers/storms and brief heavy rain with the stronger cells. ASE,
TEX, HDN, EGE and GUC stand the best chance to see a storm
impacting the terminals but overall, VFR conditions should
prevail. Some storm activity may linger after sunset but die down
by midnight at the latest.


* * * * * Arizona * * * * *

KPGA 241720Z 2418/2518 VRB03KT P6SM BKN120
     FM242000 28008G14KT P6SM SCT100 BKN120
     FM250200 29007KT P6SM FEW100
METAR KPGA 241853Z AUTO VRB05KT 10SM CLR 31/05 A3006 RMK AO2 SLP107
       T03110050 TSNO
METAR KPGA 241753Z AUTO VRB04KT 10SM CLR 29/06 A3007 RMK AO2 SLP115
       T02890061 10294 20206 58009 TSNO
METAR KPGA 241653Z AUTO VRB03KT 10SM SCT100 28/07 A3010 RMK AO2 SLP122
       T02780067 TSNO

METAR KRQE 241853Z AUTO 25008G20KT 10SM -RA SCT080 28/04 A3022 RMK AO2
       RAB18E31B49 SLP103 P0000 T02780044 TSNO
METAR KRQE 241753Z AUTO 27012G20KT 10SM BKN070 BKN095 26/05 A3023 RMK
       AO2 SLP107 T02610050 10267 20089 56005 TSNO
METAR KRQE 241653Z AUTO 24008G17KT 10SM BKN070 25/07 A3024 RMK AO2
       SLP109 T02500067 TSNO

Flagstaff (KFSX) 06/24/21 19:01 UTC
Radar VAD winds      Height      Dir/Spd(kt)
                  26000 FT MSL...226/046
                  25000 FT MSL...212/040
                  24000 FT MSL...276/026
                  23000 FT MSL...270/021
                  22000 FT MSL...235/024
                  21000 FT MSL...212/037
                  20000 FT MSL...219/035
                  19000 FT MSL...254/018
                  18000 FT MSL...219/021
                  17000 FT MSL...262/016
                  16000 FT MSL...249/014
                  15000 FT MSL...247/013
                  14500 FT MSL...252/011
                  14000 FT MSL...349/036
                  13000 FT MSL...255/008
                  13000 FT MSL...260/008
                  12000 FT MSL...265/019
                  11800 FT MSL...285/008
                  11000 FT MSL...296/007
                  10000 FT MSL...259/009
                  10000 FT MSL...294/013
                   9200 FT MSL...234/006
                   9000 FT MSL...255/012
                   8500 FT MSL...248/006
                   8000 FT MSL...259/009
                   7800 FT MSL...265/009
                   7500 FT MSL...264/005
                   7500 FT MSL...249/009

Flagstaff Aviation Discussion
Issued at 1638 UTC Thursday, June 24, 2021

.AVIATION...For the 18Z package...Expect VFR conditions for the 24
hour TAF forecast period. Sfc winds W-SW5-15g20kts from 18Z-01Z.
Otherwise, sfc winds light and variable. Isold-sct SHRA/-TSRA, most
numrs west and northwest of the I-17 corridor. Aviation discussion
not updated for TAF amendments.


* * * * * Utah * * * * *

KSLC 241846Z 2419/2524 17006KT P6SM VCSH SCT080 BKN100
     FM242000 32010KT P6SM VCTS SCT080CB BKN110
     FM250400 15009KT P6SM BKN100
     FM251800 34009KT P6SM FEW100 SCT200
METAR KSLC 241854Z VRB03KT 10SM FEW045 BKN090 BKN120 BKN250 24/12 A3008
        RMK AO2 SLP129 VIRGA CB DSNT SE AND SW TCU DSNT NE AND S
        T02390117
METAR KSLC 241754Z 17009KT 10SM FEW035 FEW050 BKN090 BKN130 BKN200
        22/12 A3011 RMK AO2 RAE01 SLP137 CB DSNT E-SE TCU DSNT S-SW
        ACSL DSNT SE-SW P0000 60002 T02220122 10239 20189 58001
METAR KSLC 241654Z 17006KT 10SM -RA FEW045 SCT080 BKN110 BKN200 21/13
        A3010 RMK AO2 RAE03B52 SLP139 VIRGA CB DSNT SE TCU DSNT SW
        P0000 T02060133

KVEL 241744Z 2418/2518 VRB04KT P6SM VCSH SCT080 BKN100
     FM241900 27011G21KT P6SM VCTS SCT060CB BKN100
     FM250200 32008KT P6SM VCSH SCT040 BKN100
     FM250600 VRB04KT P6SM SCT045 BKN120
METAR KVEL 241853Z AUTO 24019G27KT 10SM -RA OVC090 21/09 A3014 RMK AO2
       PK WND 25027/1853 RAB23E30B51 SLP146 P0000 T02110094
METAR KVEL 241753Z AUTO 12005KT 10SM OVC090 24/07 A3011 RMK AO2 LTG DSNT
       SE SLP127 T02440067 10256 20178
METAR KVEL 241653Z AUTO 00000KT 10SM 24/08 A3011 RMK AO2 SLP128
       T02440078 $

METAR KPUC 241853Z AUTO 04005KT 10SM CLR 19/12 A3019 RMK AO2 LTG DSNT
        N RAE03 SLP153 P0000 T01890122
METAR KPUC 241753Z AUTO 08010KT 6SM -RA BR FEW026 BKN065 OVC090 16/13
       A3020 RMK AO2 WSHFT 1716 LTG DSNT W-NE RAE1655B35 SLP161
       P0002 60003 T01560133 10206 20156 53004
SPECI KPUC 241730Z AUTO 23010G17KT 10SM FEW023 BKN060 OVC075 17/11 A3023
       RMK AO2 WSHFT 1716 LTG DSNT NE AND SW AND W RAE1655 P0000
       T01670111

KCNY 241744Z 2418/2518 28014G23KT P6SM VCTS SCT080CB BKN100
     FM250100 32012KT P6SM VCTS SCT090CB BKN120
     FM250500 VRB04KT P6SM FEW070 SCT150
METAR KCNY 241853Z AUTO 30010KT 10SM BKN100 24/12 A3009 RMK AO2 SLP132
       T02390117
METAR KCNY 241753Z AUTO 31015KT 10SM FEW043 BKN090 BKN100 23/12 A3010
       RMK AO2 WSHFT 1707 RAB20E45 SLP136 P0000 60000 T02280122
       10256 20200 53007
SPECI KCNY 241727Z AUTO 28019KT 10SM -RA FEW041 BKN080 OVC090 21/14
       A3009 RMK AO2 WSHFT 1707 RAB20 P0000 T02110139


Salt Lake City (KMTX) 06/24/21 18:58 UTC
Radar VAD winds      Height      Dir/Spd(kt)
                  30000 FT MSL...173/022
                  28000 FT MSL...173/021
                  26000 FT MSL...181/021
                  25000 FT MSL...176/018
                  24000 FT MSL...181/018
                  22000 FT MSL...194/016
                  20500 FT MSL...007/005
                  20000 FT MSL...210/016
                  19000 FT MSL...192/019
                  18000 FT MSL...219/015
                  17000 FT MSL...218/015
                  15000 FT MSL...200/010
                   9000 FT MSL...068/004
                   9000 FT MSL...081/004
                   8300 FT MSL...061/005
                   7700 FT MSL...050/004
                   6800 FT MSL...016/008
                   6600 FT MSL...354/003

Salt Lake City Aviation Discussion
Issued at 1543 UTC Thursday, June 24, 2021

.AVIATION... KSLC...The primary forecast challenge today will be
the presence and timing of thunderstorms. Early morning vicinity
showers are forecast, followed by strong southerly winds with
gusts around 25 kts between 16 and 19Z. Thunderstorms are then
expected to track northward toward the terminal with VCTS, or
thunderstorms on station sometime between 19 and 21Z. That said,
it will not be impossible to see a thunderstorm after that hour.
Winds at this time are expected to remain out of the
southeast/southerly direction this afternoon, shifting northwest
around 02Z.
Rest of Utah and southwest Wyoming...Impacts and timing out any
thunderstorm activity today remains the primary forecast challenge
for today/tonight. We have place -TSRA on station for a few
terminals later this morning based on the first wave of moisture
tracking northward across northern Utah/southwest Wyoming. VCTS
has been added this afternoon and evening for additional
forecasted thunderstorm potential. These thunderstorms will have a
high-cloud base layer, thereby keeping ceilings VFR. Visibilities
may briefly lower in/near thunderstorms.


* * * * * Wyoming * * * * *

KEVW 241720Z 2418/2518 21004KT P6SM VCTS BKN060CB OVC100
      TEMPO 2419/2421 -TSRA OVC060CB
     FM242100 34006KT P6SM SCT060 BKN080 OVC100
     FM250100 26010KT P6SM VCTS SCT080CB BKN100
     FM251000 20006KT P6SM BKN060 OVC080=
METAR KEVW 241853Z AUTO 30008KT 10SM 13/09 A3027 RMK AO2 WSHFT 1815 LTG
       DSNT SE RAB34RAEMM SLP170 P0001 T01330094 $
SPECI KEVW 241835Z AUTO 27016KT 9SM -RA BKN038 BKN047 OVC060 14/09 A3026
       RMK AO2 WSHFT 1815 RAB34 P0000 T01390094 $
METAR KEVW 241753Z AUTO VRB03KT 10SM OVC065 17/09 A3026 RMK AO2 SLP156
       60002 T01670089 10167 20111 51002 $

KRKS 241720Z 2418/2518 26012G20KT P6SM SCT080 BKN120
     FM242200 27018G28KT P6SM VCTS SCT080CB OVC120
     FM250500 VRB06KT P6SM VCTS SCT080CB OVC120
     FM251600 VRB06KT P6SM SCT060 BKN100
METAR KRKS 241854Z AUTO 26022G29KT 10SM SCT110 20/05 A3019 RMK AO2
        PK WND 25034/1826 SLP140 T02000050
METAR KRKS 241754Z AUTO 26023G32KT 10SM BKN110 23/04 A3018 RMK AO2 PK
       WND 25032/1749 SLP129 T02280039 10239 20139 55001
METAR KRKS 241654Z AUTO 31011KT 10SM BKN110 23/02 A3018 RMK AO2 SLP126
        T02280017

KRWL 241734Z 2418/2518 24012G23KT P6SM BKN100
     FM242100 27012G23KT P6SM VCTS BKN080CB
     FM250100 29012KT P6SM -SHRA BKN060
     FM250600 29010KT P6SM VCSH OVC050
     FM251400 28012KT P6SM -SHRA OVC035
METAR KRWL 241853Z AUTO 26010G21KT 10SM CLR 27/02 A3012 RMK AO2 SLP088
       T02720017
METAR KRWL 241753Z AUTO 27013G17KT 10SM SCT110 27/02 A3014 RMK AO2
       SLP100 T02670022 10267 20156 56006
METAR KRWL 241653Z AUTO 24012G19KT 10SM SCT120 25/04 A3016 RMK AO2
       SLP106 T02500039

KLAR 241734Z 2418/2518 06007KT P6SM SCT120
     FM241830 19012G20KT P6SM VCTS BKN080CB
     FM250200 26011KT P6SM VCSH BKN080
     FM251000 30005KT P6SM FEW030 OVC080
     FM251700 34010KT P6SM -SHRA OVC060
METAR KLAR 241853Z AUTO VRB03KT 10SM CLR 23/01 A3015 RMK AO2 LTG DSNT W
       SLP091 T02330011
METAR KLAR 241753Z AUTO 08008KT 10SM CLR 25/01 A3017 RMK AO2 SLP093
       T02500011 10250 20139 58008
METAR KLAR 241653Z AUTO 04004KT 10SM CLR 23/01 A3018 RMK AO2 SLP097
       T02330006

KCYS 241734Z 2418/2518 09007KT P6SM SCT120
     FM242000 16012KT P6SM VCSH BKN080
     FM242100 20012G20KT P6SM -TSRA BKN060CB
     FM242300 29012KT P6SM -SHRA VCTS OVC080CB
     FM250100 28012KT P6SM VCSH BKN060
     FM251000 31006KT P6SM VCSH OVC080
METAR KCYS 241853Z 08004KT 10SM CLR 25/09 A3010 RMK AO2 SLP098
       T02500089
METAR KCYS 241753Z 07006KT 10SM CLR 24/08 A3012 RMK AO2 SLP103 T02440083
       10250 20167 56002
METAR KCYS 241653Z VRB03KT 10SM CLR 22/08 A3012 RMK AO2 SLP109
       T02220083

Riverton (KRIW) 06/24/21 19:00 UTC
Radar VAD winds      Height      Dir/Spd(kt)
                  35000 FT MSL...223/031
                  32100 FT MSL...231/017
                  30000 FT MSL...228/018
                  28000 FT MSL...224/017
                  26900 FT MSL...219/019
                  26000 FT MSL...222/017
                  25000 FT MSL...225/016
                  24000 FT MSL...223/020
                  22800 FT MSL...221/016
                  22000 FT MSL...208/014
                  20000 FT MSL...217/013
                  19400 FT MSL...229/013
                  19000 FT MSL...211/016
                  18000 FT MSL...225/012
                  17000 FT MSL...233/013
                  16700 FT MSL...221/009
                  16000 FT MSL...230/007
                  15000 FT MSL...242/014
                  14500 FT MSL...229/013
                  14000 FT MSL...254/008
                  12600 FT MSL...270/005
                  10000 FT MSL...272/005
                   9000 FT MSL...231/003
                   8800 FT MSL...270/004
                   8000 FT MSL...249/004
                   8000 FT MSL...222/003
                   7300 FT MSL...201/004
                   6200 FT MSL...040/004
                   6000 FT MSL...059/005
                   5900 FT MSL...066/005

Cheyenne (KCYS) 06/24/21 18:57 UTC
Radar VAD winds      Height      Dir/Spd(kt)
                  34000 FT MSL...228/036
                  33000 FT MSL...250/038
                  32000 FT MSL...252/045
                  31000 FT MSL...251/044
                  30000 FT MSL...253/042
                  29000 FT MSL...254/043
                  28000 FT MSL...243/015
                  27000 FT MSL...248/015
                  26000 FT MSL...265/016
                  25000 FT MSL...252/015
                  24000 FT MSL...236/010
                  23400 FT MSL...236/010
                  23000 FT MSL...247/010
                  22000 FT MSL...260/008
                  21000 FT MSL...255/004
                  20000 FT MSL...284/003
                  20000 FT MSL...301/003
                  19000 FT MSL...011/007
                  18000 FT MSL...018/007
                  17300 FT MSL...005/009
                  17000 FT MSL...006/009
                  16000 FT MSL...022/007
                  15100 FT MSL...358/007
                  15000 FT MSL...000/009
                  12000 FT MSL...086/005
                  11700 FT MSL...066/009
                  10500 FT MSL...057/003
                   9600 FT MSL...044/006
                   9000 FT MSL...036/006
                   8700 FT MSL...055/007
                   8000 FT MSL...067/006
                   7900 FT MSL...072/008
                   7300 FT MSL...072/006
                   7000 FT MSL...083/008
                   6700 FT MSL...070/011

Riverton Aviation Discussion
Issued at 1730 UTC Thursday, June 24, 2021

.AVIATION...(For the 18Z TAFS through 18Z Friday)
Issued at 1130 AM MDT Thu Jun 24 2021
A rather complicated forecast for aviation over the next 24 hours
with spotty convective activity across the entire area with an area
of low pressure to the west moving over the state.  VFR conditions
look to hold throughout the period, but any TS or heavier SHRA that
reaches a terminal may quickly drop visibility and ceiling levels to
MVFR/IFR conditions.  Spotty convection looks to start going anytime
after 19Z and it may linger until between 06Z and 12Z. Models are
indicating some heavier precipitation during the overnight hours,
especially in the corridor from KLND to KCPR.  Looking to pinpoint
exact timing at each location is very difficult, so overall VCSH and
VCTS are being used over much of timeframe to allow for waves of
activity to come through the area.

Cheyenne Aviation Discussion
Issued at 1744 UTC Thursday, June 24, 2021

.AVIATION...(For the 18Z TAFS through 18Z Friday afternoon)
Issued at 1137 AM MDT Thu Jun 24 2021
Scattered to numerous showers and thunderstorms will develop
across the region this afternoon and evening. Storms have already
begun developing along the higher terrain west of KLAR late this
morning and will continue over the next few hours. More widespread
coverage will be expected east of the Laramie Range with -TSRA
possible near KCYS by 21z. Storms will begin to move towards NE
Panhandle terminals after 00z. Gusty, erratic winds and lightning
are the main concerns with these storms near terminal sites before
06z. Areas in the NE Panhandle receiving considerable rainfall
with these storms this evening could see MVFR conditions develop
around 12z Friday morning with low clouds and patchy fog. This all
before the next round of showers and storms move over SE WY
terminals late Friday morning and into the NE Panhandle by the
afternoon.


* * * * * Nebraska * * * * *

METAR KIBM 241855Z AUTO 11008G16KT 10SM CLR 29/08 A3003 RMK AO2
       T02930082
METAR KIBM 241835Z AUTO 36003KT 10SM CLR 28/07 A3004 RMK AO2
       T02820074
METAR KIBM 241815Z AUTO 11008KT 10SM CLR 29/08 A3004 RMK AO2
       T02880081

KSNY 241734Z 2418/2518 11010KT P6SM BKN100
     FM250100 21014KT P6SM VCTS BKN060CB
     FM250600 32006KT P6SM OVC060
     FM251200 35007KT P6SM VCSH OVC035 AMD NOT SKED

METAR KOGA 241855Z AUTO 11006KT 10SM -RA SCT046 SCT060 BKN110 22/17
       A2996 RMK AO2 T02200171
METAR KOGA 241835Z AUTO 09004KT 10SM -RA SCT050 BKN090 OVC110 21/18
       A2997 RMK AO2 T02130177
METAR KOGA 241815Z AUTO 04007KT 10SM -RA OVC100 21/17 A2999 RMK AO2
       T02100170

METAR KIML 241853Z AUTO 07010KT 10SM -RA FEW038 BKN100 27/19 A2996 RMK
       AO2 RAB04 SLP110 P0000 T02670194
METAR KIML 241753Z AUTO 04010G19KT 10SM BKN100 OVC120 25/19 A2997 RMK
       AO2 SLP115 T02500189 10272 20206 53012
METAR KIML 241653Z AUTO 36008KT 10SM CLR 26/19 A2994 RMK AO2 SLP099
       T02610189

KMCK 241723Z 2418/2518 03014KT P6SM BKN019
     FM242100 04014KT P6SM BKN100
     FM242300 06013KT P6SM SCT150
     FM250500 04006KT 6SM SHRA BR VCTS BKN090CB PROB30 2505/2509
      VRB25G50KT 5SM +TSRA OVC050CB
     FM251000 04007KT P6SM BKN100
METAR KMCK 241853Z AUTO 04012KT 9SM SCT031 SCT080 BKN100 27/21 A2991 RMK
       AO2 SLP098 T02670206
METAR KMCK 241753Z AUTO 04010KT 10SM FEW024 SCT110 26/19 A2992 RMK AO2
       SLP100 T02560194 10267 20211 53017
SPECI KMCK 241739Z AUTO 05010G20KT 10SM FEW022 27/20 A2990 RMK AO2
       T02670200

North Platte (KLNX) 06/24/21 19:00 UTC
Radar VAD winds      Height      Dir/Spd(kt)
                  35000 FT MSL...232/050
                  30000 FT MSL...237/047
                  28000 FT MSL...244/044
                  27100 FT MSL...249/044
                  26000 FT MSL...257/038
                  25000 FT MSL...264/036
                  24000 FT MSL...270/035
                  22000 FT MSL...271/028
                  20400 FT MSL...273/020
                  20000 FT MSL...280/025
                  19000 FT MSL...282/027
                  18000 FT MSL...296/015
                  17000 FT MSL...313/013
                  16900 FT MSL...313/013
                  16000 FT MSL...315/014
                  15000 FT MSL...314/017
                  14200 FT MSL...310/018
                  14000 FT MSL...308/018
                  13000 FT MSL...309/017
                  12000 FT MSL...304/015
                  12000 FT MSL...303/015
                  11000 FT MSL...293/015
                  10200 FT MSL...285/019
                  10000 FT MSL...283/020
                   9000 FT MSL...273/018
                   8700 FT MSL...263/017
                   8000 FT MSL...283/022
                   7500 FT MSL...246/010
                   7000 FT MSL...264/009
                   6400 FT MSL...290/006
                   6000 FT MSL...006/003
                   5600 FT MSL...086/012
                   5000 FT MSL...094/014
                   4700 FT MSL...096/015
                   4100 FT MSL...098/014
                   4000 FT MSL...108/013
                   3600 FT MSL...097/010
                   3400 FT MSL...089/011

North Platte Aviation Discussion
Issued at 1743 UTC Thursday, June 24, 2021

.AVIATION...(For the 18Z TAFS through 18Z Friday afternoon)
Issued at 1240 PM CDT Thu Jun 24 2021
VFR conditions expected into tonight, though there will be some
showers around KLBF this afternoon. Expect an increase in
shower/thunderstorm activity tonight but confidence is not high on
timing as successive guidance is pushing activity later and the
best chance for thunder may be closer to daybreak. Will make
liberal use of VCTS for the most likely time periods. Expect mvfr
cigs to develop at KVTN toward the end of the valid period as low
level moisture settles in Friday afternoon.
Expect some low end wind gusts at or below 20 mph this afternoon
followed by generally light winds overnight into Friday morning.


* * * * * Kansas * * * * *

KGLD 241723Z 2418/2518 02014KT P6SM BKN200
     FM242100 04013KT P6SM SCT200
     FM250000 07010KT P6SM SCT200
     FM250400 04010KT P6SM VCTS BKN100CB PROB30 2504/2509
      VRB35G50KT 5SM +TSRA OVC050CB
     FM251000 01007KT P6SM VCTS SCT080CB
METAR KGLD 241853Z AUTO 04019G26KT 10SM CLR 28/17 A2994 RMK AO2 PK WND
       04026/1851 SLP090 T02780172
METAR KGLD 241753Z AUTO 02012KT 10SM CLR 27/18 A2994 RMK AO2 SLP089
       T02670183 10272 20211 51012
METAR KGLD 241653Z AUTO 02014KT 10SM CLR 24/18 A2993 RMK AO2 SLP091
       T02390183

KGCK 241731Z 2418/2518 33013KT P6SM FEW250
     FM250300 11005KT P6SM VCTS BKN100CB
     FM250700 05009KT P6SM SCT100
METAR KGCK 241854Z 01014G21KT 10SM CLR 32/20 A2983 RMK AO2 SLP058
       T03220200
METAR KGCK 241754Z 35013KT 10SM CLR 31/18 A2982 RMK AO2 SLP054 T03110183
       10317 20211 50002
METAR KGCK 241654Z 31013KT 10SM CLR 31/17 A2984 RMK AO2 SLP062
       T03110172

METAR KLBL 241856Z AUTO VRB06KT 10SM CLR 36/12 A2986 RMK AO2 SLP065
       T03610122
METAR KLBL 241756Z AUTO 33006KT 10SM CLR 36/12 A2985 RMK AO2 SLP061
       T03610122 10361 20250 58003
METAR KLBL 241656Z AUTO 32013G23KT 10SM CLR 34/12 A2986 RMK AO2 PK WND
       30027/1557 SLP064 T03440122

METAR KEHA 241855Z AUTO 24008KT 10SM CLR 35/06 A2993 RMK AO2
       T03480063
METAR KEHA 241835Z AUTO 00000KT 10SM CLR 35/06 A2993 RMK AO2
       T03490063
METAR KEHA 241815Z AUTO 35007KT 10SM CLR 35/07 A2994 RMK AO2
       T03470068

Goodland (KGLD) 06/24/21 19:01 UTC
Radar VAD winds      Height      Dir/Spd(kt)
                  19000 FT MSL...224/028
                  18000 FT MSL...198/027
                  17500 FT MSL...199/025
                  17000 FT MSL...194/022
                  16000 FT MSL...178/021
                  15000 FT MSL...177/014
                  14800 FT MSL...186/022
                  14000 FT MSL...157/014
                  13000 FT MSL...133/013
                  12600 FT MSL...156/015
                  12000 FT MSL...119/013
                  11000 FT MSL...106/016
                  10700 FT MSL...104/017
                  10000 FT MSL...053/015
                   9200 FT MSL...053/025
                   9000 FT MSL...042/027
                   8000 FT MSL...037/034
                   8000 FT MSL...038/032
                   7000 FT MSL...034/036
                   6900 FT MSL...035/035
                   6200 FT MSL...034/033
                   6000 FT MSL...037/032
                   5300 FT MSL...030/028
                   5000 FT MSL...034/027
                   4700 FT MSL...028/025
                   4200 FT MSL...041/026
                   4000 FT MSL...036/024
                   4000 FT MSL...040/025

Dodge City (KDDC) 06/24/21 18:55 UTC
Radar VAD winds      Height      Dir/Spd(kt)
                  26000 FT MSL...233/036
                  25000 FT MSL...230/036
                  24000 FT MSL...225/038
                  22000 FT MSL...244/034
                  20000 FT MSL...213/048
                  19000 FT MSL...217/045
                  18000 FT MSL...236/036
                  16400 FT MSL...218/016
                  16000 FT MSL...214/018
                  15000 FT MSL...232/030
                  14000 FT MSL...234/031
                  13800 FT MSL...224/031
                  13000 FT MSL...239/029
                  12000 FT MSL...253/030
                  11500 FT MSL...240/031
                  11000 FT MSL...249/032
                  10000 FT MSL...267/029
                   9600 FT MSL...262/027
                   9000 FT MSL...260/022
                   8100 FT MSL...256/018
                   8000 FT MSL...255/019
                   7000 FT MSL...241/016
                   6900 FT MSL...241/015
                   6000 FT MSL...264/013
                   5800 FT MSL...266/013
                   5000 FT MSL...318/014
                   5000 FT MSL...307/012
                   4200 FT MSL...314/013
                   4000 FT MSL...321/014
                   3800 FT MSL...318/013
                   3200 FT MSL...328/013
                   3000 FT MSL...333/013
                   3000 FT MSL...333/013

Goodland Aviation Discussion
Issued at 1731 UTC Thursday, June 24, 2021

.AVIATION...(For the 18Z TAFS through 18Z Friday afternoon)
Issued at 1123 AM MDT Thu Jun 24 2021
Broken clouds are expected to remain over the terminals for the
next several hours ahead of convection expected to develop off the
Front Range in the late afternoon hours. The storms are expected
to move towards the GLD terminal around 03-04Z and persist through
09Z. At the MCK terminal, storms are expected to move in around 04-05Z
and persist through 09-10Z. Hazards include damaging winds and
large hail. Initial storms could be scattered and evolve into a
line as along the CO border. A few scattered storms are possible
behind the line; however, the threat for damaging winds is
expected to be lower. Winds are expected to remain in the 5-15 kts
range over the terminals with strong gusts possible in the
vicinity of any thunderstorms.

Dodge City Aviation Discussion
Issued at 1829 UTC Thursday, June 24, 2021

.AVIATION...(For the 18Z TAFS through 18Z Friday afternoon)
Issued at 1239 PM CDT Thu Jun 24 2021
An area of low pressure at the surface will move into central
Kansas later this afternoon as a surface boundary/cold front moves
into southwest Kansas. Behind this surface boundary the winds
will be north northeast at 10 to 15 knots through the remainder of
the day and overnight. Scattered thunderstorms will be possible
early this evening near and north of Garden City and Dodge City. A
few storms may be severe with the main hazard being strong
damaging winds. Based on BUFR soundings cloud bases in and near
these thunderstorms will at between 8000ft and 12000ft AGL. Best
chance for thunderstorms early tonight will be from 02z and 05z
Friday.


* * * * * Texas/Oklahoma * * * * *

KGUY 241745Z 2418/2518 33015G25KT P6SM SCT150
     FM242300 20008KT P6SM SCT150 PROB30 2503/2506 4SM -TSRA
      BKN100CB
     FM251200 32007KT P6SM BKN250=

KDHT 241745Z 2418/2518 19008KT P6SM BKN250
     FM242100 18011G20KT P6SM SCT100 PROB30 2503/2506 4SM TSRA
      BKN100CB
     FM251200 33007KT P6SM BKN250
METAR KDHT 241853Z AUTO 20018G26KT 10SM CLR 35/07 A2996 RMK AO2 PK WND
       17026/1839 SLP069 T03500072
METAR KDHT 241753Z AUTO 16011KT 10SM CLR 34/07 A2998 RMK AO2 SLP076
       60000 T03390072 10339 20206 58002
METAR KDHT 241653Z AUTO 19006KT 10SM SCT090 BKN110 31/07 A3001 RMK AO2
       SLP084 T03110072

Amarillo (KAMA) 06/24/21 18:56 UTC
Radar VAD winds      Height      Dir/Spd(kt)
                  30000 FT MSL...207/021
                  28000 FT MSL...244/033
                  26000 FT MSL...234/031
                  25000 FT MSL...244/027
                  24200 FT MSL...210/022
                  24000 FT MSL...244/029
                  22000 FT MSL...256/031
                  20900 FT MSL...217/025
                  20000 FT MSL...241/031
                  19000 FT MSL...185/032
                  18000 FT MSL...224/032
                  17400 FT MSL...199/023
                  17000 FT MSL...201/021
                  16000 FT MSL...209/024
                  15000 FT MSL...224/022
                  14800 FT MSL...217/022
                  14000 FT MSL...216/020
                  13000 FT MSL...219/017
                  12500 FT MSL...203/018
                  12000 FT MSL...216/014
                  11000 FT MSL...241/013
                  10700 FT MSL...224/011
                  10000 FT MSL...230/011
                   9200 FT MSL...225/011
                   9000 FT MSL...220/010
                   8000 FT MSL...219/011
                   8000 FT MSL...217/011
                   7000 FT MSL...223/010
                   6900 FT MSL...223/010
                   6100 FT MSL...223/009
                   6000 FT MSL...222/009
                   5300 FT MSL...225/009
                   5000 FT MSL...229/008
                   4800 FT MSL...230/008
                   4200 FT MSL...189/010
                   4000 FT MSL...201/012
                   4000 FT MSL...206/011

Amarillo Aviation Discussion
Issued at 1757 UTC Thursday, June 24, 2021

.AVIATION...18z TAF Cycle...
Main concern for this cycle will be for the development of widely
scattered to scattered thunderstorms across the western and
central combined Panhandles this afternoon into this evening.
Went ahead with a VCTS at KAMA as confidence is higher for impacts
relative to the other terminals. Other storms may move into the
area off the higher terrain later this evening, so have included
PROB30s at KGUY and KDHT for that time frame. Otherwise, VFR
conditions are expected. Winds will be northerly behind a weak
surface boundary (KGUY), and light winds near the boundary
(KDHT). KAMA should stay breezy out of the southwest. Winds will
become southerly at all sites as the boundary lifts back to the
north this afternoon and evening.
Ward


* * * * * New Mexico * * * * *

KFMN 241739Z 2418/2518 VRB06KT P6SM SKC
     FM242000 28012G22KT P6SM SCT080
     FM250600 32013KT P6SM BKN100
     FM251000 07006KT P6SM SCT100
     FM251500 VRB05KT P6SM FEW140
METAR KFMN 241853Z VRB03KT 10SM CLR 28/08 A3012 RMK AO2 SLP140
       T02830078
METAR KFMN 241753Z VRB05KT 10SM CLR 26/08 A3014 RMK AO2 SLP149 T02610083
       10267 20133 56009
METAR KFMN 241653Z VRB06KT 10SM CLR 24/09 A3015 RMK AO2 SLP155
       T02440089

METAR KSKX 241856Z AUTO 29008G21KT 10SM FEW085 28/05 A3023 RMK AO2
       SLP145 T02780050
METAR KSKX 241756Z AUTO 17007KT 10SM FEW075 26/07 A3025 RMK AO2 SLP155
       T02560067 10256 20122 58014
METAR KSKX 241656Z AUTO VRB05KT 10SM CLR 23/07 A3027 RMK AO2 SLP165
       T02280067

KLVS 241739Z 2418/2518 VRB06KT P6SM SKC
     FM242100 24016G24KT P6SM VCTS BKN110CB
     FM250100 VRB06KT P6SM SCT100
     FM251500 25007KT P6SM SKC
METAR KLVS 241853Z AUTO 25018G27KT 10SM FEW100 31/03 A3017 RMK AO2 PK
       WND 27030/1843 WSHFT 1814 SLP078 T03060028
SPECI KLVS 241834Z AUTO 26015G22KT 10SM FEW110 30/02 A3017 RMK AO2 WSHFT
       1814 T03000022
METAR KLVS 241753Z AUTO VRB06KT 10SM CLR 28/04 A3019 RMK AO2 SLP086
       T02830039 10283 20150 58005

METAR KRTN 241853Z AUTO VRB06G19KT 10SM CLR 31/01 A3011 RMK AO2 SLP085
       T03060006
METAR KRTN 241753Z AUTO 27007KT 10SM CLR 29/01 A3013 RMK AO2 SLP100
       T02940011 10300 20144 58008
METAR KRTN 241653Z AUTO 25008KT 10SM CLR 28/01 A3014 RMK AO2 SLP101
       T02780011

METAR KCAO 241855Z AUTO 15009G16KT 10SM CLR 33/07 A3002 RMK AO2 SLP076
       T03280067
METAR KCAO 241755Z AUTO 10SM CLR 32/07 A3004 RMK AO2 SLP084 T03170067
       10322 20244 52002
METAR KCAO 241655Z AUTO 14008KT 10SM CLR 30/07 A3004 RMK AO2 SLP086
       T03000072

Albuquerque (KABX) 06/24/21 18:59 UTC
Radar VAD winds      Height      Dir/Spd(kt)
                  45000 FT MSL...001/005
                  40000 FT MSL...342/005
                  38900 FT MSL...338/004
                  35000 FT MSL...010/005
                  34400 FT MSL...322/007
                  30000 FT MSL...240/032
                  29900 FT MSL...271/025
                  28000 FT MSL...232/034
                  26500 FT MSL...263/023
                  26000 FT MSL...226/026
                  25000 FT MSL...235/028
                  24000 FT MSL...238/026
                  23200 FT MSL...240/014
                  22000 FT MSL...230/026
                  20000 FT MSL...242/029
                  19800 FT MSL...258/023
                  19000 FT MSL...238/027
                  18000 FT MSL...246/028
                  17100 FT MSL...251/026
                  17000 FT MSL...238/028
                  16000 FT MSL...245/027
                  15000 FT MSL...247/028
                  14800 FT MSL...250/025
                  14000 FT MSL...250/022
                  13000 FT MSL...265/024
                  13000 FT MSL...252/023
                  12000 FT MSL...252/018
                  11600 FT MSL...277/018
                  11000 FT MSL...253/017
                  10000 FT MSL...248/015
                   9000 FT MSL...243/012
                   8300 FT MSL...261/015
                   8000 FT MSL...258/013
                   7000 FT MSL...257/012
                   7000 FT MSL...249/008
                   6500 FT MSL...255/008
                   6300 FT MSL...258/006

Albuquerque Aviation Discussion
Issued at 1753 UTC Thursday, June 24, 2021

.AVIATION...
18Z TAF CYCLE
Scattered afternoon and evening thunderstorms are forecast areawide
with the greatest coverage favoring east of the Continental Divide.
Brief heavy rain along with gusty downburst and outflow winds are
expected to be the main impacts from stronger storms near terminals
KABQ, KAEG, KSAF, KLVS, and KROW. Expect coverage to decrease after
25/06Z. Thunderstorm potential expected to decrease substantially on
Friday as drier air intrudes from the west. VFR to prevail with the
exception of locally reduced visibilities in and around
thunderstorms.
12

* * * * * Winds and Temperatures Aloft Forecasts * * * * *

DATA BASED ON 241200Z
VALID 241800Z   FOR USE 1700-2100Z. TEMPS NEG ABV 24000
FT  3000    6000   9000    12000   18000   24000  30000  34000  39000
SLC      9900    2209+09 2216+03 1923-10 1924-21 131838 160747 233248
BCE                      2912+05 2514-11 2318-23 242936 244841 247745
LND              9900+15 2206+08 2207-10 2218-22 232238 232350 244948
RKS              2813    2812+07 1613-10 2012-21 241638 251848 235345
GJT              2608+13 2210+05 2013-09 2222-21 222637 234443 245445
FMN              2607+14 2414+06 2429-07 2325-20 244934 256937 245749
ABQ              2507+17 2517+09 2433-08 2230-19 264431 275738 254551
MBW              2708    2707+07 9900-11 2213-21 232238 232847 245846
DEN              3505+14 3111+07 2420-08 2329-19 234036 234642 246648
PUB              9900+16 2320+09 2334-07 2335-19 233935 254738 255549
ALS                      2212+08 2334-08 2231-19 244434 255738 245549
TCC      2406    2513+19 2417+11 2522-07 2231-19 243432 273738 273550
BFF      1006    1607+13 1805+07 2905-09 2419-20 224436 215044 255949
GLD      3623    0308+16 9900+10 2435-08 2439-18 233235 254042 266249
GCK      3406+25 2522+20 2629+12 2429-07 2324-19 242835 263841 275050
GAG      2423+27 2427+20 2329+12 2224-07 2424-18 272234 283241 293349
AMA      2014    2220+20 2128+12 2323-08 2420-18 242933 273339 293350
---------------------------------------------------------------------

DATA BASED ON 241200Z
VALID 250000Z   FOR USE 2100-0600Z. TEMPS NEG ABV 24000
FT  3000    6000   9000    12000   18000   24000  30000  34000  39000
SLC      9900    2508+09 2410+03 2417-08 2316-21 161837 201045 252749
BCE                      2912+07 2614-10 2419-24 254834 257939 258348
LND              3316+13 9900+06 1816-08 2124-20 222536 242748 253552
RKS              2728    2712+06 1410-09 1919-20 182036 182547 233549
GJT              2709+15 2514+07 2327-09 2221-21 241936 253842 256747
FMN              2812+17 2812+09 2524-08 2435-20 267131 267638 266550
ABQ              2312+20 2313+11 2533-07 2228-17 265430 275539 264851
MBW              1613    1410+08 2812-09 2725-20 253836 224146 245749
DEN              2710+11 2314+06 2331-07 2431-19 251934 251645 256548
PUB              1713+20 2116+11 2427-07 2433-19 273135 266040 266148
ALS                      2417+11 2528-07 2434-19 265832 278238 266349
TCC      2217    2317+21 2316+12 2519-06 2433-17 284230 294838 283651
BFF      1414    1710+14 9900+07 9900-09 2718-19 264336 245646 256046
GLD      0715    1209+14 2322+09 2434-06 2533-18 263634 264741 255948
GCK      0606+26 1709+17 2223+11 2529-06 2441-18 254133 264938 265450
GAG      1931+26 2225+20 2422+12 2316-06 2430-17 253832 284038 283850
AMA      2015    2018+19 2118+10 2522-06 2527-16 272731 304039 293951
---------------------------------------------------------------------

DATA BASED ON 241200Z
VALID 251200Z   FOR USE 0600-1700Z. TEMPS NEG ABV 24000
FT  3000    6000   9000    12000   18000   24000  30000  34000  39000
SLC      9900    2913+11 3017+04 2913-11 3220-22 311339 281645 272848
BCE                      3112+05 2313-11 2813-23 264634 267239 267648
LND              3208+08 0113+02 3516-11 2805-21 201338 182148 262549
RKS              9900    3214+02 3115-11 2805-22 990038 251045 262748
GJT              2714+13 2622+06 2731-11 2730-24 273236 265240 266946
FMN              2916+15 2613+07 2720-11 2540-19 267131 267039 266249
ABQ              3313+16 2811+08 2432-07 2641-16 275629 265540 264451
MBW              2929    2923+02 2620-09 2513-21 160537 230946 243048
DEN              3009+11 2922+05 2522-11 2627-23 254434 256039 256746
PUB              3016+15 2920+07 2527-10 2544-21 257131 256838 265649
ALS                      2815+08 2621-10 2546-20 266831 256339 255349
TCC      2418    2612+18 2516+10 2427-07 2335-15 274730 274839 264051
BFF      2109    1706+09 1105+03 2308-08 2412-20 151237 201945 233948
GLD      1507    2615+11 2823+06 2533-08 2451-19 245531 256238 255850
GCK      3007+19 2619+16 2718+09 2430-08 2347-18 264431 264439 264251
GAG      2538+21 2525+17 2519+11 2325-07 2438-18 283530 273839 273351
AMA      2435    2724+17 2616+11 2422-06 2429-17 273930 274339 263252
---------------------------------------------------------------------

This product is updated automatically at approximately 10, 30 and 50
minutes after each hour, 24 hours per day, 7 days per week.  It may
become unavailable at times due to system outages without prior notice.
Users are advised to check the time at the top of the product to ensure
that it is current.  Furthermore, content and format of the product are
subject to change without prior notice.

Comments and suggestions are welcome and should be directed to one of
the addresses or phone numbers shown at the bottom of this page.  In
order to expedite a response to comments or suggestions, be sure to
mention your interest in the hot-air balloon forecast.


USA.gov is the U.S. government's official web portal to all federal, state and local government web resources and services.